Time;durP1;ratioP1;P1;durP2;ratioP2;P2;SDS_P1;SDS_P2;PMS_P1;PMS_P2;Temp;Humidity;BMP_temperature;BMP_pressure;BME280_temperature;BME280_humidity;BME280_pressure;Samples;Min_cycle;Max_cycle;Signal;HPM_P1;HPM_P2
2022/05/08 00:01:45;;;;;;;10.03;6.03;;;16.30;1.00;;;;;;5059524;28;20428;-79
2022/05/08 00:04:27;;;;;;;8.93;5.90;;;16.30;1.00;;;;;;5057955;28;20424;-76
2022/05/08 00:07:04;;;;;;;10.10;6.20;;;16.20;1.00;;;;;;5058340;28;20420;-78
2022/05/08 00:09:35;;;;;;;9.97;5.70;;;16.20;1.00;;;;;;5053192;28;20440;-79
2022/05/08 00:12:07;;;;;;;9.57;5.20;;;16.20;1.00;;;;;;5053328;28;20416;-79
2022/05/08 00:14:35;;;;;;;9.13;5.30;;;16.20;1.00;;;;;;5054713;28;20444;-79
2022/05/08 00:17:06;;;;;;;8.93;5.50;;;16.20;1.00;;;;;;5048686;28;20401;-80
2022/05/08 00:19:36;;;;;;;9.20;5.73;;;16.20;1.00;;;;;;5059527;28;20424;-81
2022/05/08 00:22:06;;;;;;;10.63;6.07;;;16.10;1.00;;;;;;5056737;28;20421;-80
2022/05/08 00:24:36;;;;;;;12.70;5.37;;;16.10;1.00;;;;;;5054594;28;20430;-80
2022/05/08 00:27:05;;;;;;;9.57;5.80;;;16.00;1.00;;;;;;5054764;28;20461;-77
2022/05/08 00:29:35;;;;;;;10.20;6.03;;;16.00;1.00;;;;;;5056112;28;20447;-77
2022/05/08 00:32:07;;;;;;;10.37;5.47;;;15.90;1.00;;;;;;5055889;28;20966;-77
2022/05/08 00:34:37;;;;;;;8.93;5.90;;;15.90;1.00;;;;;;5054818;28;20421;-79
2022/05/08 00:37:05;;;;;;;10.43;6.03;;;15.80;1.00;;;;;;5056255;28;20440;-78
2022/05/08 00:39:35;;;;;;;8.60;4.90;;;15.80;1.00;;;;;;5059393;28;20448;-78
2022/05/08 00:42:06;;;;;;;8.57;5.33;;;15.80;1.00;;;;;;5049441;28;20421;-80
2022/05/08 00:44:36;;;;;;;8.93;5.70;;;15.80;1.00;;;;;;5055354;28;20417;-79
2022/05/08 00:47:06;;;;;;;8.47;5.10;;;15.80;1.00;;;;;;5061554;28;20419;-77
2022/05/08 00:49:37;;;;;;;8.17;5.13;;;15.80;1.00;;;;;;5048086;28;20429;-77
2022/05/08 00:52:08;;;;;;;13.43;5.00;;;15.80;1.00;;;;;;5055900;28;20409;-74
2022/05/08 00:54:35;;;;;;;7.93;4.63;;;15.80;1.00;;;;;;5051713;28;20420;-78
2022/05/08 00:57:08;;;;;;;10.13;4.90;;;15.80;1.00;;;;;;5054143;28;20554;-77
2022/05/08 00:59:35;;;;;;;8.53;4.67;;;15.90;1.00;;;;;;5052807;28;20520;-76
2022/05/08 01:02:05;;;;;;;8.60;5.37;;;15.80;1.00;;;;;;5047335;28;20436;-78
2022/05/08 01:04:39;;;;;;;8.30;5.10;;;15.80;1.00;;;;;;5057902;28;20416;-77
2022/05/08 01:07:07;;;;;;;9.03;5.13;;;15.80;1.00;;;;;;5059077;28;20984;-77
2022/05/08 01:09:35;;;;;;;8.40;5.40;;;15.90;1.00;;;;;;5058069;28;20439;-77
2022/05/08 01:12:07;;;;;;;8.33;4.90;;;15.90;1.00;;;;;;5055907;28;20416;-77
2022/05/08 01:14:35;;;;;;;10.60;5.93;;;15.90;1.00;;;;;;5057410;28;20428;-78
2022/05/08 01:17:06;;;;;;;9.10;5.60;;;16.00;1.00;;;;;;5054387;28;20435;-77
2022/05/08 01:19:35;;;;;;;10.63;4.57;;;15.90;1.00;;;;;;5055576;28;20460;-75
2022/05/08 01:22:08;;;;;;;8.17;3.90;;;15.90;1.00;;;;;;5054618;28;20420;-76
2022/05/08 01:24:36;;;;;;;7.83;3.87;;;15.70;1.00;;;;;;5055554;28;20421;-77
2022/05/08 01:27:06;;;;;;;8.30;3.43;;;15.80;1.00;;;;;;5058517;28;20452;-77
2022/05/08 01:29:38;;;;;;;7.47;3.13;;;15.70;1.00;;;;;;5055659;28;20451;-77
2022/05/08 01:32:09;;;;;;;6.57;2.77;;;15.70;1.00;;;;;;5052300;28;20460;-77
2022/05/08 01:34:35;;;;;;;8.00;3.13;;;15.60;1.00;;;;;;5058739;28;20440;-76
2022/05/08 01:37:05;;;;;;;6.40;3.37;;;15.50;1.00;;;;;;5058956;28;20412;-74
2022/05/08 01:39:36;;;;;;;6.70;3.00;;;15.50;1.00;;;;;;5054374;28;20444;-76
2022/05/08 01:42:06;;;;;;;6.73;2.80;;;15.40;1.00;;;;;;5052611;28;20482;-77
2022/05/08 01:44:36;;;;;;;5.83;2.27;;;15.40;1.00;;;;;;5056915;28;20428;-77
2022/05/08 01:49:57;;;;;;;7.10;2.50;;;15.30;1.00;;;;;;5055473;28;20436;-78
2022/05/08 01:52:27;;;;;;;6.60;2.50;;;15.40;1.00;;;;;;5060085;28;20462;-77
2022/05/08 01:54:56;;;;;;;7.10;3.20;;;15.30;1.00;;;;;;5056720;28;20420;-78
2022/05/08 01:57:26;;;;;;;8.30;2.97;;;15.20;1.00;;;;;;5061709;28;20447;-75
2022/05/08 01:59:55;;;;;;;6.40;2.60;;;15.10;1.00;;;;;;5060729;28;20536;-77
2022/05/08 02:02:26;;;;;;;8.80;3.10;;;15.00;1.00;;;;;;5056496;28;20446;-78
2022/05/08 02:04:55;;;;;;;8.60;3.10;;;14.90;1.00;;;;;;5056847;28;20428;-78
2022/05/08 02:07:35;;;;;;;8.23;3.13;;;14.80;1.00;;;;;;5055888;28;20502;-79
2022/05/08 02:10:06;;;;;;;8.40;3.80;;;14.50;1.00;;;;;;5059020;28;20437;-77
2022/05/08 02:12:35;;;;;;;9.07;4.40;;;14.20;1.00;;;;;;5054320;28;20463;-78
2022/05/08 02:15:07;;;;;;;7.20;3.57;;;13.90;1.00;;;;;;5055772;28;20431;-78
2022/05/08 02:17:37;;;;;;;6.90;3.10;;;13.60;1.00;;;;;;5059006;28;20434;-77
2022/05/08 02:20:09;;;;;;;8.30;4.30;;;13.40;1.00;;;;;;5050821;28;20446;-79
2022/05/08 02:22:38;;;;;;;10.23;4.70;;;13.30;1.00;;;;;;5056825;28;20451;-77
2022/05/08 02:25:07;;;;;;;9.70;4.70;;;13.20;1.00;;;;;;5059819;28;20422;-77
2022/05/08 02:27:39;;;;;;;9.43;5.37;;;13.10;1.00;;;;;;5056451;28;20467;-78
2022/05/08 02:30:08;;;;;;;10.57;6.80;;;13.00;1.00;;;;;;5052999;28;20489;-78
2022/05/08 02:32:36;;;;;;;9.23;4.60;;;13.00;1.00;;;;;;5055372;28;20414;-78
2022/05/08 02:35:07;;;;;;;10.87;4.83;;;13.00;1.00;;;;;;5054191;28;20449;-79
2022/05/08 02:37:38;;;;;;;12.40;6.60;;;13.00;1.00;;;;;;5054340;28;20419;-78
2022/05/08 02:40:08;;;;;;;9.07;4.73;;;13.00;1.00;;;;;;5055351;28;20492;-77
2022/05/08 02:42:36;;;;;;;8.83;5.03;;;13.00;1.00;;;;;;5054450;28;20467;-78
2022/05/08 02:45:08;;;;;;;10.80;5.93;;;13.00;1.00;;;;;;5051898;28;20454;-78
2022/05/08 02:47:36;;;;;;;7.73;4.83;;;13.10;1.00;;;;;;5057566;28;20477;-77
2022/05/08 02:50:09;;;;;;;8.40;4.60;;;13.10;1.00;;;;;;5058533;28;20431;-77
2022/05/08 02:52:39;;;;;;;10.40;5.20;;;13.10;1.00;;;;;;5054849;28;20484;-74
2022/05/08 03:00:47;;;;;;;9.60;5.47;;;13.00;1.00;;;;;;5052758;28;20419;-75
2022/05/08 03:03:16;;;;;;;8.53;6.00;;;13.10;1.00;;;;;;5052755;28;20403;-78
2022/05/08 03:05:56;;;;;;;9.17;5.47;;;13.10;1.00;;;;;;5052442;28;20449;-77
2022/05/08 03:08:26;;;;;;;20.20;16.20;;;13.10;1.00;;;;;;5059625;28;20447;-77
2022/05/08 03:13:46;;;;;;;10.80;5.83;;;13.20;1.00;;;;;;5058626;28;20500;-77
2022/05/08 03:16:16;;;;;;;10.53;6.77;;;13.20;1.00;;;;;;5048522;28;20599;-79
2022/05/08 03:18:46;;;;;;;10.07;5.70;;;13.10;1.00;;;;;;5051971;28;20547;-78
2022/05/08 03:21:17;;;;;;;10.70;6.13;;;13.10;1.00;;;;;;5053692;28;20458;-76
2022/05/08 03:23:47;;;;;;;11.53;5.97;;;13.20;1.00;;;;;;5056769;28;20434;-78
2022/05/08 03:26:19;;;;;;;10.00;6.20;;;13.20;1.00;;;;;;5052573;28;20438;-79
2022/05/08 03:28:47;;;;;;;9.60;6.20;;;13.20;1.00;;;;;;5056585;28;20415;-78
2022/05/08 03:31:18;;;;;;;12.03;6.60;;;13.10;1.00;;;;;;5050981;28;20454;-78
2022/05/08 03:33:46;;;;;;;10.63;6.53;;;13.20;1.00;;;;;;5051702;28;20430;-79
2022/05/08 03:36:16;;;;;;;10.23;6.23;;;13.10;1.00;;;;;;5058221;28;20449;-75
2022/05/08 03:38:48;;;;;;;11.03;6.90;;;13.10;1.00;;;;;;5055881;28;20436;-77
2022/05/08 03:41:16;;;;;;;11.73;7.07;;;13.00;1.00;;;;;;5054613;28;20450;-77
2022/05/08 03:43:47;;;;;;;12.53;7.47;;;12.90;1.00;;;;;;5056437;28;20487;-76
2022/05/08 03:46:17;;;;;;;8.73;7.83;;;12.90;1.00;;;;;;5056740;28;21821;-77
2022/05/08 03:48:46;;;;;;;10.80;9.70;;;12.90;1.00;;;;;;5057468;28;20469;-77
2022/05/08 03:51:16;;;;;;;11.07;7.83;;;12.90;1.00;;;;;;5052848;28;20478;-77
2022/05/08 03:53:53;;;;;;;8.20;7.30;;;12.90;1.00;;;;;;5051613;28;20533;-78
2022/05/08 03:56:27;;;;;;;9.50;6.87;;;12.90;1.00;;;;;;5054694;28;20433;-76
2022/05/08 03:58:57;;;;;;;8.53;7.37;;;12.90;1.00;;;;;;5059720;28;20446;-79
2022/05/08 04:01:27;;;;;;;8.37;7.67;;;12.90;1.00;;;;;;5052012;28;20413;-79
2022/05/08 04:03:59;;;;;;;7.93;7.17;;;12.90;1.00;;;;;;5050608;28;20405;-77
2022/05/08 04:06:26;;;;;;;9.13;7.93;;;13.00;1.00;;;;;;5052296;28;20486;-77
2022/05/08 04:08:56;;;;;;;8.23;7.40;;;13.00;1.00;;;;;;5050833;28;20526;-77
2022/05/08 04:11:29;;;;;;;8.60;7.80;;;13.00;1.00;;;;;;5053949;28;20437;-76
2022/05/08 04:13:58;;;;;;;8.37;7.57;;;13.00;1.00;;;;;;5039398;28;20470;-77
2022/05/08 04:16:27;;;;;;;7.43;6.73;;;12.90;1.00;;;;;;5055223;28;20432;-78
2022/05/08 04:19:00;;;;;;;8.83;7.97;;;12.90;1.00;;;;;;5054766;28;20459;-76
2022/05/08 04:21:28;;;;;;;8.30;7.40;;;12.90;1.00;;;;;;5053534;28;20465;-77
2022/05/08 04:26:46;;;;;;;11.37;8.73;;;13.00;1.00;;;;;;5052149;28;20457;-77
2022/05/08 04:29:18;;;;;;;8.13;7.33;;;13.00;1.00;;;;;;5048009;28;20428;-77
2022/05/08 04:31:49;;;;;;;7.30;6.70;;;12.90;1.00;;;;;;5052425;28;20458;-77
2022/05/08 04:34:18;;;;;;;8.30;7.30;;;13.00;1.00;;;;;;5055926;28;20402;-77
2022/05/08 04:36:46;;;;;;;6.47;5.97;;;13.00;1.00;;;;;;5053484;28;20429;-74
2022/05/08 04:39:18;;;;;;;7.27;6.30;;;13.00;1.00;;;;;;5053366;28;20523;-76
2022/05/08 04:41:47;;;;;;;6.97;6.27;;;13.00;1.00;;;;;;5058116;28;20452;-76
2022/05/08 04:44:16;;;;;;;5.90;5.30;;;13.10;1.00;;;;;;5050838;28;20411;-76
2022/05/08 04:46:47;;;;;;;7.50;6.13;;;13.10;1.00;;;;;;5052383;28;20474;-77
2022/05/08 04:49:16;;;;;;;7.97;5.83;;;13.00;1.00;;;;;;5048979;28;20413;-77
2022/05/08 04:51:46;;;;;;;8.60;6.27;;;12.90;1.00;;;;;;5055104;28;20725;-78
2022/05/08 04:54:16;;;;;;;7.97;5.97;;;12.90;1.00;;;;;;5053559;28;20428;-77
2022/05/08 04:56:49;;;;;;;7.20;6.43;;;12.90;1.00;;;;;;5053873;28;20494;-78
2022/05/08 04:59:16;;;;;;;8.13;6.50;;;12.90;1.00;;;;;;5051947;28;20455;-78
2022/05/08 05:01:46;;;;;;;7.20;6.47;;;13.00;1.00;;;;;;5051116;28;20455;-77
2022/05/08 05:04:17;;;;;;;8.17;5.97;;;13.10;1.00;;;;;;5055869;28;20438;-77
2022/05/08 05:06:49;;;;;;;8.47;5.53;;;13.10;1.00;;;;;;5059707;28;20435;-76
2022/05/08 05:09:16;;;;;;;8.67;6.33;;;12.90;1.00;;;;;;5061509;28;20423;-77
2022/05/08 05:11:46;;;;;;;7.93;5.60;;;12.80;1.00;;;;;;5053166;28;20428;-78
2022/05/08 05:14:16;;;;;;;6.97;6.07;;;12.70;1.00;;;;;;5054007;28;20482;-78
2022/05/08 05:16:46;;;;;;;8.20;5.83;;;12.60;1.00;;;;;;5052876;28;21423;-78
2022/05/08 05:19:16;;;;;;;7.40;6.47;;;12.60;1.00;;;;;;5054882;28;21442;-77
2022/05/08 05:21:47;;;;;;;8.07;7.37;;;12.70;1.00;;;;;;5047965;28;20439;-78
2022/05/08 05:24:16;;;;;;;8.83;5.70;;;12.80;1.00;;;;;;5057772;28;20437;-77
2022/05/08 05:26:48;;;;;;;5.90;4.93;;;12.80;1.00;;;;;;5044836;28;20441;-76
2022/05/08 05:29:16;;;;;;;6.90;5.67;;;12.90;1.00;;;;;;5044036;28;20433;-76
2022/05/08 05:31:46;;;;;;;10.17;6.67;;;12.90;1.00;;;;;;5049534;28;20430;-78
2022/05/08 05:34:16;;;;;;;6.23;5.53;;;13.00;1.00;;;;;;5050927;28;20429;-75
2022/05/08 05:36:46;;;;;;;6.63;5.70;;;13.10;1.00;;;;;;5050056;28;20467;-77
2022/05/08 05:39:16;;;;;;;10.27;5.80;;;13.10;1.00;;;;;;5051681;28;20952;-74
2022/05/08 05:41:55;;;;;;;5.63;4.67;;;13.20;1.00;;;;;;5055535;28;20473;-77
2022/05/08 05:44:27;;;;;;;7.23;5.57;;;13.30;1.00;;;;;;5053865;28;20422;-77
2022/05/08 05:49:47;;;;;;;6.67;5.10;;;13.40;1.00;;;;;;5056823;28;20427;-77
2022/05/08 05:52:18;;;;;;;9.60;5.80;;;13.40;1.00;;;;;;5056950;28;20434;-77
2022/05/08 05:54:48;;;;;;;8.30;5.67;;;13.50;1.00;;;;;;5060601;28;20463;-74
2022/05/08 05:57:17;;;;;;;9.90;5.10;;;13.60;1.00;;;;;;5058990;28;20423;-77
2022/05/08 05:59:48;;;;;;;6.97;5.57;;;13.70;1.00;;;;;;5055687;28;20417;-77
2022/05/08 06:02:19;;;;;;;6.10;4.43;;;13.90;1.00;;;;;;5056816;28;20479;-76
2022/05/08 06:04:46;;;;;;;5.87;4.37;;;14.00;1.00;;;;;;5059924;28;20471;-76
2022/05/08 06:07:17;;;;;;;14.27;5.27;;;14.00;1.00;;;;;;5061900;28;20427;-77
2022/05/08 06:09:46;;;;;;;12.43;5.10;;;13.90;1.00;;;;;;5054508;28;20420;-77
2022/05/08 06:12:26;;;;;;;5.97;4.63;;;14.00;1.00;;;;;;5059084;28;20467;-77
2022/05/08 06:14:57;;;;;;;7.90;5.30;;;14.00;1.00;;;;;;5059565;28;20470;-77
2022/05/08 06:17:27;;;;;;;8.03;4.50;;;14.10;1.00;;;;;;5061315;28;20446;-76
2022/05/08 06:20:05;;;;;;;7.77;5.13;;;14.10;1.00;;;;;;5057522;28;20499;-76
2022/05/08 06:22:37;;;;;;;6.07;3.63;;;14.10;1.00;;;;;;5060624;28;20479;-78
2022/05/08 06:25:08;;;;;;;6.57;5.00;;;14.20;1.00;;;;;;5060773;28;20456;-75
2022/05/08 06:27:39;;;;;;;10.40;4.33;;;14.40;1.00;;;;;;5056481;28;21361;-76
2022/05/08 06:30:08;;;;;;;7.87;4.37;;;14.60;1.00;;;;;;5052727;28;20648;-79
2022/05/08 06:32:37;;;;;;;6.47;3.90;;;14.70;1.00;;;;;;5059227;28;20622;-77
2022/05/08 06:35:08;;;;;;;7.50;4.70;;;14.70;1.00;;;;;;5059122;28;20421;-75
2022/05/08 06:37:39;;;;;;;7.43;4.30;;;14.70;1.00;;;;;;5055431;28;20413;-74
2022/05/08 06:40:09;;;;;;;6.03;4.50;;;14.70;1.00;;;;;;5054659;28;20415;-78
2022/05/08 06:42:39;;;;;;;8.87;4.80;;;14.90;1.00;;;;;;5055345;28;20605;-76
2022/05/08 06:45:08;;;;;;;9.10;4.80;;;15.20;1.00;;;;;;5056593;28;20451;-78
2022/05/08 06:47:37;;;;;;;8.67;4.60;;;15.40;1.00;;;;;;5054404;28;20424;-79
2022/05/08 06:50:08;;;;;;;6.70;4.60;;;15.50;1.00;;;;;;5061024;28;20468;-77
2022/05/08 06:52:38;;;;;;;5.63;3.60;;;15.60;1.00;;;;;;5059098;28;20415;-78
2022/05/08 06:55:08;;;;;;;9.07;4.53;;;15.70;1.00;;;;;;5055235;28;20455;-79
2022/05/08 06:57:42;;;;;;;9.03;4.43;;;15.70;1.00;;;;;;5050967;28;20625;-78
2022/05/08 07:03:07;;;;;;;8.30;4.30;;;15.70;1.00;;;;;;5049786;28;20819;-79
2022/05/08 07:05:47;;;;;;;5.93;4.20;;;15.70;1.00;;;;;;5053619;28;20428;-80
2022/05/08 07:08:17;;;;;;;5.67;3.63;;;15.70;1.00;;;;;;5054115;28;20654;-78
2022/05/08 07:10:47;;;;;;;10.30;4.60;;;15.80;1.00;;;;;;5058353;28;20437;-79
2022/05/08 07:13:22;;;;;;;8.70;4.23;;;15.90;1.00;;;;;;5056228;28;20432;-80
2022/05/08 07:15:50;;;;;;;4.90;3.73;;;16.00;1.00;;;;;;5053533;28;20977;-78
2022/05/08 07:18:19;;;;;;;7.30;4.40;;;16.10;1.00;;;;;;5051342;28;20574;-78
2022/05/08 07:20:47;;;;;;;8.93;4.60;;;16.20;1.00;;;;;;5051898;28;20448;-81
2022/05/08 07:23:20;;;;;;;8.73;5.40;;;16.20;1.00;;;;;;5060625;28;20429;-80
2022/05/08 07:25:47;;;;;;;6.40;3.77;;;16.20;1.00;;;;;;5058959;28;20459;-79
2022/05/08 07:28:22;;;;;;;6.20;3.10;;;16.30;1.00;;;;;;5059699;28;20429;-80
2022/05/08 07:30:49;;;;;;;4.93;2.90;;;16.40;1.00;;;;;;5064986;28;20435;-79
2022/05/08 07:33:17;;;;;;;5.83;3.73;;;16.50;1.00;;;;;;5059372;28;20611;-80
2022/05/08 07:36:17;;;;;;;5.10;3.40;;;16.50;1.00;;;;;;5062103;28;20460;-81
2022/05/08 07:38:48;;;;;;;8.70;4.67;;;16.60;1.00;;;;;;5059140;28;20440;-78
2022/05/08 07:41:18;;;;;;;7.20;3.70;;;16.70;1.00;;;;;;5062712;28;20567;-80
2022/05/08 07:43:49;;;;;;;6.60;4.70;;;16.90;1.00;;;;;;5059700;28;20467;-82
2022/05/08 07:46:17;;;;;;;7.70;4.43;;;17.00;1.00;;;;;;5062154;28;20444;-82
2022/05/08 07:48:47;;;;;;;8.50;4.60;;;17.10;1.00;;;;;;5056000;28;20427;-79
2022/05/08 07:51:20;;;;;;;9.13;4.53;;;17.30;1.00;;;;;;5059400;28;20553;-79
2022/05/08 07:53:48;;;;;;;10.23;3.53;;;17.40;1.00;;;;;;5060563;28;20469;-81
2022/05/08 07:56:19;;;;;;;7.80;4.10;;;17.50;1.00;;;;;;5055936;28;20434;-79
2022/05/08 07:58:56;;;;;;;8.53;3.83;;;17.60;1.00;;;;;;5058914;28;20426;-79
2022/05/08 08:01:27;;;;;;;10.77;3.97;;;17.70;1.00;;;;;;5060496;28;20420;-80
2022/05/08 08:03:58;;;;;;;7.37;4.37;;;17.70;1.00;;;;;;5056184;28;20457;-80
2022/05/08 08:06:28;;;;;;;7.00;4.30;;;17.60;1.00;;;;;;5060297;28;20674;-80
2022/05/08 08:08:57;;;;;;;10.40;4.93;;;17.60;1.00;;;;;;5057856;28;20424;-79
2022/05/08 08:11:28;;;;;;;7.33;4.57;;;17.70;1.00;;;;;;5060266;28;20456;-81
2022/05/08 08:14:07;;;;;;;8.00;5.03;;;17.70;1.00;;;;;;5060699;28;20460;-80
2022/05/08 08:16:37;;;;;;;6.77;4.00;;;17.80;1.00;;;;;;5062109;28;20428;-79
2022/05/08 08:19:07;;;;;;;7.07;5.00;;;17.90;1.00;;;;;;5058129;28;20431;-81
2022/05/08 08:21:37;;;;;;;9.90;5.60;;;18.10;1.00;;;;;;5060279;28;20410;-81
2022/05/08 08:24:07;;;;;;;8.53;5.27;;;18.20;1.00;;;;;;5057598;28;20425;-80
2022/05/08 08:26:41;;;;;;;10.33;5.30;;;18.20;1.00;;;;;;5059176;28;20420;-79
2022/05/08 08:29:10;;;;;;;8.60;5.37;;;18.20;1.00;;;;;;5054707;28;20467;-81
2022/05/08 08:31:39;;;;;;;8.63;4.30;;;18.40;1.00;;;;;;5059965;28;21606;-82
2022/05/08 08:34:09;;;;;;;6.83;5.40;;;18.70;1.00;;;;;;5056397;28;20447;-81
2022/05/08 08:36:37;;;;;;;8.97;4.57;;;19.00;1.00;;;;;;5062998;28;20405;-82
2022/05/08 08:39:07;;;;;;;8.93;4.70;;;19.10;1.00;;;;;;5059782;28;20626;-77
2022/05/08 08:41:57;;;;;;;9.00;4.33;;;19.30;1.00;;;;;;5060019;28;20503;-78
2022/05/08 08:50:07;;;;;;;11.13;4.60;;;19.10;1.00;;;;;;5057433;28;20476;-81
2022/05/08 08:52:38;;;;;;;6.00;4.70;;;19.00;1.00;;;;;;5059171;28;21244;-82
2022/05/08 08:55:08;;;;;;;6.67;4.50;;;19.00;1.00;;;;;;5061255;28;20488;-80
2022/05/08 08:57:37;;;;;;;7.60;4.83;;;19.10;1.00;;;;;;5058460;28;20539;-79
2022/05/08 09:00:18;;;;;;;7.80;5.00;;;19.30;1.00;;;;;;5058308;28;20580;-79
2022/05/08 09:02:48;;;;;;;8.90;4.53;;;19.40;1.00;;;;;;5058748;28;20432;-81
2022/05/08 09:05:27;;;;;;;9.60;5.40;;;19.50;1.00;;;;;;5063079;28;20424;-79
2022/05/08 09:08:00;;;;;;;7.33;4.40;;;19.60;1.00;;;;;;5063915;28;20421;-81
2022/05/08 09:10:35;;;;;;;9.93;4.33;;;19.70;1.00;;;;;;5059900;28;20479;-81
2022/05/08 09:13:08;;;;;;;8.63;4.13;;;19.80;1.00;;;;;;5061977;28;20427;-79
2022/05/08 09:15:46;;;;;;;7.97;4.20;;;19.80;1.00;;;;;;5058276;28;20447;-81
2022/05/08 09:18:17;;;;;;;8.53;4.73;;;19.90;1.00;;;;;;5059764;28;20412;-78
2022/05/08 09:20:48;;;;;;;10.10;4.00;;;20.20;1.00;;;;;;5060415;28;20530;-80
2022/05/08 09:23:20;;;;;;;8.57;3.60;;;20.40;1.00;;;;;;5058966;28;20416;-79
2022/05/08 09:26:00;;;;;;;7.00;2.90;;;20.90;1.00;;;;;;5062453;28;20467;-80
2022/05/08 09:28:29;;;;;;;7.90;3.33;;;22.10;1.00;;;;;;5052147;28;20460;-80
2022/05/08 09:31:04;;;;;;;5.07;3.00;;;23.40;1.00;;;;;;5061515;28;20450;-81
2022/05/08 09:33:38;;;;;;;4.50;2.43;;;24.60;1.00;;;;;;5060274;28;20419;-81
2022/05/08 09:36:09;;;;;;;9.97;8.10;;;25.80;1.00;;;;;;5060232;28;20432;-79
2022/05/08 09:38:59;;;;;;;7.77;2.50;;;26.70;1.00;;;;;;5060771;28;20420;-80
2022/05/08 09:41:29;;;;;;;5.73;3.10;;;27.60;1.00;;;;;;5063420;28;20458;-79
2022/05/08 09:44:09;;;;;;;5.90;2.93;;;27.70;1.00;;;;;;5057133;28;20425;-77
2022/05/08 09:46:46;;;;;;;8.90;3.23;;;28.20;1.00;;;;;;5056831;28;20446;-82
2022/05/08 09:49:19;;;;;;;6.70;2.97;;;29.00;1.00;;;;;;5055157;28;20396;-81
2022/05/08 09:51:48;;;;;;;4.40;2.53;;;29.70;1.00;;;;;;5055064;28;20962;-80
2022/05/08 09:54:19;;;;;;;4.93;2.40;;;29.70;1.00;;;;;;5066164;28;20401;-80
2022/05/08 09:56:59;;;;;;;6.57;3.30;;;29.90;1.00;;;;;;5064036;28;20432;-79
2022/05/08 09:59:28;;;;;;;8.23;2.80;;;30.10;1.00;;;;;;5061648;28;20432;-80
2022/05/08 10:02:18;;;;;;;4.37;2.80;;;30.50;1.00;;;;;;5063785;28;20404;-80
2022/05/08 10:04:46;;;;;;;9.73;3.27;;;30.90;1.00;;;;;;5059778;28;20452;-79
2022/05/08 10:07:18;;;;;;;5.23;2.30;;;30.90;1.00;;;;;;5053527;28;20444;-80
2022/05/08 10:18:40;;;;;;;5.53;2.43;;;31.80;1.00;;;;;;5434140;23;20453;-82
2022/05/08 10:21:08;;;;;;;5.27;2.67;;;31.90;1.00;;;;;;5035541;28;20421;-80
2022/05/08 10:23:41;;;;;;;5.10;2.80;;;32.00;1.00;;;;;;5027705;28;20635;-81
2022/05/08 10:26:20;;;;;;;4.77;2.47;;;32.30;1.00;;;;;;5037098;28;20918;-80
2022/05/08 10:29:12;;;;;;;5.10;2.40;;;32.00;1.00;;;;;;5029890;28;20483;-80
2022/05/08 10:31:43;;;;;;;7.83;3.30;;;31.80;1.00;;;;;;5028260;28;20438;-80
2022/05/08 10:34:12;;;;;;;6.00;2.90;;;32.10;1.00;;;;;;5023595;28;21962;-80
2022/05/08 10:36:40;;;;;;;3.63;2.27;;;32.50;1.00;;;;;;5021105;28;20461;-81
2022/05/08 10:39:37;;;;;;;5.47;2.70;;;32.30;1.00;;;;;;5017174;28;20499;-81
2022/05/08 10:42:06;;;;;;;4.70;2.27;;;32.60;1.00;;;;;;5021688;28;20453;-81
2022/05/08 10:44:37;;;;;;;7.50;3.10;;;32.40;1.00;;;;;;5004639;28;20559;-80
2022/05/08 10:47:44;;;;;;;5.17;3.10;;;32.50;1.00;;;;;;5018482;28;20868;-80
2022/05/08 10:50:16;;;;;;;5.83;3.50;;;32.70;1.00;;;;;;5020374;28;20994;-82
2022/05/08 10:52:49;;;;;;;5.07;2.50;;;33.00;1.00;;;;;;5015452;28;20461;-81
2022/05/08 10:55:17;;;;;;;5.90;2.60;;;32.80;1.00;;;;;;5010166;28;20457;-79
2022/05/08 10:57:47;;;;;;;4.90;2.80;;;32.80;1.00;;;;;;5011024;28;20469;-81
2022/05/08 11:00:35;;;;;;;8.03;3.37;;;33.00;1.00;;;;;;5019364;28;20429;-82
2022/05/08 11:03:03;;;;;;;5.20;2.30;;;33.30;1.00;;;;;;5018795;28;20460;-80
2022/05/08 11:05:33;;;;;;;4.03;2.10;;;33.90;1.00;;;;;;5020727;28;20449;-81
2022/05/08 11:08:01;;;;;;;3.83;2.33;;;34.10;1.00;;;;;;5017841;28;20635;-80
2022/05/08 11:10:29;;;;;;;5.93;2.80;;;33.90;1.00;;;;;;5014517;28;20925;-82
2022/05/08 11:13:00;;;;;;;4.23;2.17;;;34.30;1.00;;;;;;5014720;28;20646;-81
2022/05/08 11:15:28;;;;;;;4.10;2.50;;;34.10;1.00;;;;;;5021168;28;21569;-81
2022/05/08 11:18:07;;;;;;;4.77;2.33;;;33.90;1.00;;;;;;5014069;28;20433;-81
2022/05/08 11:23:32;;;;;;;7.40;2.93;;;34.20;1.00;;;;;;5014718;28;20464;-83
2022/05/08 11:26:00;;;;;;;6.30;2.60;;;34.40;1.00;;;;;;5018578;28;20469;-82
2022/05/08 11:28:28;;;;;;;7.13;2.60;;;34.50;1.00;;;;;;5016697;28;21364;-81
2022/05/08 11:30:59;;;;;;;8.43;2.97;;;34.90;1.00;;;;;;5019004;28;20470;-81
2022/05/08 11:36:27;;;;;;;7.07;2.97;;;35.20;1.00;;;;;;5016556;28;20474;-82
2022/05/08 11:38:56;;;;;;;11.07;2.63;;;35.50;1.00;;;;;;5015438;28;20492;-79
2022/05/08 11:41:35;;;;;;;7.73;2.53;;;36.00;1.00;;;;;;5016131;28;20488;-82
2022/05/08 11:44:11;;;;;;;7.90;2.27;;;36.00;1.00;;;;;;5021498;28;20551;-82
2022/05/08 11:46:40;;;;;;;6.67;2.43;;;36.20;1.00;;;;;;5010532;28;20937;-83
2022/05/08 11:49:19;;;;;;;5.70;2.60;;;36.10;1.00;;;;;;5013191;28;20547;-83
2022/05/08 11:51:57;;;;;;;6.13;2.10;;;36.50;1.00;;;;;;5014295;28;20656;-82
2022/05/08 11:54:32;;;;;;;8.47;2.37;;;37.10;1.00;;;;;;5010687;28;20579;-83
2022/05/08 11:57:13;;;;;;;6.17;2.20;;;37.10;1.00;;;;;;5013096;28;20515;-83
2022/05/08 11:59:46;;;;;;;7.70;2.70;;;36.50;1.00;;;;;;5016629;28;20462;-83
2022/05/08 12:02:18;;;;;;;7.93;2.90;;;36.40;1.00;;;;;;5008806;28;20520;-83
2022/05/08 12:04:59;;;;;;;7.60;2.70;;;36.30;1.00;;;;;;5014830;28;20473;-83
2022/05/08 12:07:27;;;;;;;10.77;3.17;;;36.10;1.00;;;;;;5010687;28;20560;-82
2022/05/08 12:09:56;;;;;;;10.40;2.97;;;36.20;1.00;;;;;;5010285;28;20592;-82
2022/05/08 12:12:35;;;;;;;7.10;2.73;;;36.70;1.00;;;;;;5012607;28;20866;-83
2022/05/08 12:15:19;;;;;;;8.33;2.67;;;36.80;1.00;;;;;;5013820;28;20998;-83
2022/05/08 12:21:32;;;;;;;7.63;3.00;;;37.10;1.00;;;;;;5488618;23;20473;-82
2022/05/08 12:26:48;;;;;;;5.93;2.77;;;36.50;1.00;;;;;;5039190;28;20465;-81
2022/05/08 12:29:25;;;;;;;6.43;2.20;;;36.70;1.00;;;;;;5052556;28;20472;-80
2022/05/08 12:31:53;;;;;;;5.80;2.20;;;36.80;1.00;;;;;;5017709;28;20476;-80
2022/05/08 12:34:22;;;;;;;6.60;2.87;;;36.80;1.00;;;;;;5039295;28;20506;-80
2022/05/08 12:36:51;;;;;;;5.83;2.57;;;37.00;1.00;;;;;;5051203;28;20485;-82
2022/05/08 12:39:34;;;;;;;4.80;1.70;;;37.30;1.00;;;;;;5053228;28;20697;-82
2022/05/08 12:42:01;;;;;;;5.87;2.53;;;36.80;1.00;;;;;;5045687;28;20432;-83
2022/05/08 12:44:31;;;;;;;8.50;2.83;;;36.10;1.00;;;;;;5048030;28;20535;-83
2022/05/08 12:47:02;;;;;;;8.00;2.60;;;36.00;1.00;;;;;;5047694;28;20425;-83
2022/05/08 12:49:33;;;;;;;8.33;2.30;;;36.30;1.00;;;;;;5052795;28;20463;-81
2022/05/08 12:52:02;;;;;;;6.23;2.03;;;36.70;1.00;;;;;;5047514;28;21013;-82
2022/05/08 12:54:35;;;;;;;5.30;2.30;;;36.70;1.00;;;;;;5042168;28;20471;-83
2022/05/08 12:59:42;;;;;;;6.23;2.33;;;36.90;1.00;;;;;;5047113;28;20417;-83
2022/05/08 13:00:14;;;;;;;6.20;2.33;;;36.70;1.00;;;;;;5047653;28;20417;-83
2022/05/08 13:02:43;;;;;;;7.73;3.63;;;36.50;1.00;;;;;;5053398;28;20428;-81
2022/05/08 13:05:12;;;;;;;7.50;2.63;;;36.70;1.00;;;;;;5050220;28;20432;-83
2022/05/08 13:07:43;;;;;;;5.63;2.10;;;37.20;1.00;;;;;;5049222;28;20509;-80
2022/05/08 13:10:14;;;;;;;9.20;2.87;;;37.40;1.00;;;;;;5051478;28;20433;-82
2022/05/08 13:12:41;;;;;;;4.60;2.00;;;37.20;1.00;;;;;;5044373;28;20480;-84
2022/05/08 13:21:23;;;;;;;7.90;3.47;;;36.80;1.00;;;;;;4916865;28;20539;-84
2022/05/08 13:27:15;;;;;;;5.43;2.07;;;36.50;1.00;;;;;;4983579;28;20459;-85
2022/05/08 13:29:45;;;;;;;6.83;4.90;;;36.80;1.00;;;;;;5027396;28;20465;-81
2022/05/08 13:38:27;;;;;;;5.40;2.70;;;36.10;1.00;;;;;;4995066;28;20449;-82
2022/05/08 13:40:59;;;;;;;6.13;2.83;;;36.30;1.00;;;;;;5056331;28;20688;-81
2022/05/08 13:43:28;;;;;;;5.70;2.10;;;36.50;1.00;;;;;;5056604;28;20486;-82
2022/05/08 13:45:55;;;;;;;4.67;1.70;;;36.60;1.00;;;;;;5051869;28;20439;-83
2022/05/08 13:48:26;;;;;;;5.40;2.20;;;37.00;1.00;;;;;;5038493;28;20549;-80
2022/05/08 13:51:00;;;;;;;5.00;2.13;;;37.10;1.00;;;;;;5018840;28;20939;-82
2022/05/08 13:53:30;;;;;;;6.13;2.70;;;36.60;1.00;;;;;;5042660;28;20432;-82
2022/05/08 13:55:58;;;;;;;4.67;2.40;;;36.60;1.00;;;;;;5050628;28;20455;-81
2022/05/08 13:58:28;;;;;;;5.20;2.73;;;36.40;1.00;;;;;;5053569;28;20441;-80
2022/05/08 14:00:59;;;;;;;6.90;2.80;;;36.30;1.00;;;;;;5043195;28;20451;-81
2022/05/08 14:03:27;;;;;;;6.53;2.70;;;36.00;1.00;;;;;;5168150;22;20436;-79
2022/05/08 14:05:58;;;;;;;6.47;2.70;;;35.40;1.00;;;;;;5000494;28;20471;-79
2022/05/08 14:08:27;;;;;;;4.87;2.10;;;35.70;1.00;;;;;;5025046;28;21410;-78
2022/05/08 14:10:58;;;;;;;12.50;2.70;;;36.30;1.00;;;;;;5032408;28;20465;-77
2022/05/08 14:13:29;;;;;;;4.37;2.17;;;36.50;1.00;;;;;;5019120;28;20477;-79
2022/05/08 14:15:58;;;;;;;4.40;2.43;;;36.90;1.00;;;;;;5032694;28;20425;-79
2022/05/08 14:18:29;;;;;;;5.13;2.53;;;36.90;1.00;;;;;;5031227;28;20468;-79
2022/05/08 14:20:58;;;;;;;6.40;2.20;;;36.30;1.00;;;;;;5027569;28;20448;-78